createdAt,value
2022-09-17T00:01:04.780Z,98914.97
2022-09-17T00:03:39.944Z,98909.22
2022-09-17T00:06:21.052Z,98907.34
2022-09-17T00:08:58.897Z,98909.50
2022-09-17T00:11:35.491Z,98908.94
2022-09-17T00:14:10.248Z,98910.84
2022-09-17T00:16:48.033Z,98927.94
2022-09-17T00:19:23.165Z,98930.13
2022-09-17T00:21:53.287Z,98932.06
2022-09-17T00:24:28.729Z,98939.72
2022-09-17T00:26:59.740Z,98933.97
2022-09-17T00:29:40.345Z,98931.19
2022-09-17T00:32:15.698Z,98933.22
2022-09-17T00:34:56.855Z,98912.19
2022-09-17T00:37:37.374Z,98906.31
2022-09-17T00:40:19.987Z,98903.56
2022-09-17T00:43:01.735Z,98893.19
2022-09-17T00:45:39.792Z,98878.81
2022-09-17T00:48:12.776Z,98871.75
2022-09-17T00:50:48.478Z,98875.81
2022-09-17T00:53:28.610Z,98868.19
2022-09-17T00:56:16.676Z,98871.13
2022-09-17T00:58:48.845Z,98863.81
2022-09-17T01:01:21.829Z,98867.66
2022-09-17T01:03:59.906Z,98873.94
2022-09-17T01:06:52.775Z,98870.41
2022-09-17T01:09:42.468Z,98874.78
2022-09-17T01:12:49.631Z,98876.34
2022-09-17T01:15:48.061Z,98871.50
2022-09-17T01:19:01.254Z,98871.22
2022-09-17T01:21:44.981Z,98880.44
2022-09-17T01:24:41.294Z,98875.28
2022-09-17T01:27:45.925Z,98873.59
2022-09-17T01:30:56.136Z,98869.00
2022-09-17T01:33:44.812Z,98876.38
2022-09-17T01:36:37.443Z,98877.47
2022-09-17T01:39:31.376Z,98870.41
2022-09-17T01:42:28.109Z,98864.94
2022-09-17T01:45:09.346Z,98874.44
2022-09-17T01:48:03.526Z,98884.38
2022-09-17T01:50:57.605Z,98874.06
2022-09-17T01:53:51.768Z,98868.38
2022-09-17T01:56:34.206Z,98868.94
2022-09-17T01:59:23.886Z,98880.13
2022-09-17T02:02:24.369Z,98878.94
2022-09-17T02:05:26.650Z,98879.47
2022-09-17T02:08:07.098Z,98890.34
2022-09-17T02:10:57.611Z,98886.78
2022-09-17T02:13:41.027Z,98891.97
2022-09-17T02:16:44.863Z,98883.22
2022-09-17T02:19:31.978Z,98883.00
2022-09-17T02:22:15.755Z,98877.31
2022-09-17T02:25:14.203Z,98871.31
2022-09-17T02:28:03.483Z,98874.81
2022-09-17T02:30:39.096Z,98884.38
2022-09-17T02:33:20.372Z,98873.38
2022-09-17T02:35:55.693Z,98870.09
2022-09-17T02:38:37.320Z,98869.53
2022-09-17T02:41:16.883Z,98858.31
2022-09-17T02:44:09.778Z,98864.59
2022-09-17T02:46:49.013Z,98865.72
2022-09-17T02:49:50.276Z,98851.31
2022-09-17T02:52:45.304Z,98836.84
2022-09-17T02:55:48.311Z,98837.38
2022-09-17T02:58:34.283Z,98816.94
2022-09-17T03:01:12.850Z,98817.03
2022-09-17T03:03:56.404Z,98831.44
2022-09-17T03:06:26.192Z,98823.69
2022-09-17T03:09:08.545Z,98824.78
2022-09-17T03:11:44.315Z,98833.34
2022-09-17T03:14:23.612Z,98828.44
2022-09-17T03:16:53.652Z,98824.34
2022-09-17T03:19:23.280Z,98812.66
2022-09-17T03:22:04.279Z,98804.84
2022-09-17T03:24:36.552Z,98793.25
2022-09-17T03:27:09.606Z,98792.06
2022-09-17T03:29:43.043Z,98798.00
2022-09-17T03:32:24.029Z,98797.19
2022-09-17T03:34:56.414Z,98803.38
2022-09-17T03:37:37.907Z,98783.16
2022-09-17T03:40:05.851Z,98772.38
2022-09-17T03:42:38.165Z,98764.75
2022-09-17T03:45:10.546Z,98755.44
2022-09-17T03:47:43.603Z,98749.16
2022-09-17T03:50:19.083Z,98748.44
2022-09-17T03:52:48.828Z,98743.50
2022-09-17T03:55:22.782Z,98764.69
2022-09-17T03:57:51.467Z,98768.25
2022-09-17T04:00:23.865Z,98774.25
2022-09-17T04:02:57.000Z,98781.84
2022-09-17T04:05:37.445Z,98779.38
2022-09-17T04:08:07.226Z,98785.53
2022-09-17T04:10:49.198Z,98781.03
2022-09-17T04:13:19.287Z,98786.53
2022-09-17T04:15:58.562Z,98783.47
2022-09-17T04:18:34.043Z,98782.31
2022-09-17T04:21:04.005Z,98782.88
2022-09-17T04:23:46.624Z,98781.50
2022-09-17T04:26:13.692Z,98779.38
2022-09-17T04:28:49.178Z,98775.06
2022-09-17T04:31:25.260Z,98784.31
2022-09-17T04:33:52.308Z,98783.91
2022-09-17T04:36:24.708Z,98794.75
2022-09-17T04:38:54.873Z,98776.69
2022-09-17T04:41:21.972Z,98771.28
2022-09-17T04:43:59.906Z,98768.16
2022-09-17T04:46:37.627Z,98777.72
2022-09-17T04:49:16.151Z,98780.63
2022-09-17T04:51:51.361Z,98778.00
2022-09-17T04:54:26.396Z,98759.44
2022-09-17T04:57:01.680Z,98756.56
2022-09-17T04:59:37.418Z,98756.00
2022-09-17T05:02:31.765Z,98749.72
2022-09-17T05:05:10.984Z,98726.16
2022-09-17T05:07:44.469Z,98731.63
2022-09-17T05:10:21.755Z,98750.69
2022-09-17T05:12:59.409Z,98757.16
2022-09-17T05:15:37.614Z,98768.84
2022-09-17T05:18:18.082Z,98773.84
2022-09-17T05:20:55.994Z,98778.88
2022-09-17T05:23:33.542Z,98778.53
2022-09-17T05:26:03.868Z,98788.34
2022-09-17T05:28:36.724Z,98784.81
2022-09-17T05:31:06.988Z,98780.94
2022-09-17T05:33:47.210Z,98784.09
2022-09-17T05:36:18.465Z,98783.34
2022-09-17T05:38:56.616Z,98773.97
2022-09-17T05:41:25.994Z,98781.44
2022-09-17T05:44:01.089Z,98768.91
2022-09-17T05:46:30.445Z,98766.94
2022-09-17T05:49:03.645Z,98779.81
2022-09-17T05:51:36.178Z,98788.84
2022-09-17T05:54:15.160Z,98792.69
2022-09-17T05:56:53.619Z,98812.34
2022-09-17T05:59:20.888Z,98811.31
2022-09-17T06:02:04.033Z,98805.44
2022-09-17T06:04:35.026Z,98810.41
2022-09-17T06:07:09.387Z,98813.25
2022-09-17T06:09:42.691Z,98810.03
2022-09-17T06:12:12.645Z,98817.00
2022-09-17T06:14:41.996Z,98812.59
2022-09-17T06:17:11.634Z,98810.38
2022-09-17T06:19:44.285Z,98811.28
2022-09-17T06:22:21.220Z,98811.00
2022-09-17T06:24:55.803Z,98803.09
2022-09-17T06:27:34.659Z,98797.13
2022-09-17T06:30:02.206Z,98801.53
2022-09-17T06:32:39.380Z,98811.03
2022-09-17T06:35:11.998Z,98793.72
2022-09-17T06:37:42.936Z,98804.41
2022-09-17T06:40:10.854Z,98796.38
2022-09-17T06:42:51.380Z,98801.03
2022-09-17T06:45:33.074Z,98806.97
2022-09-17T06:48:16.752Z,98824.19
2022-09-17T06:50:46.053Z,98832.63
2022-09-17T06:53:21.786Z,98831.56
2022-09-17T06:55:54.629Z,98833.22
2022-09-17T06:58:21.575Z,98834.03
2022-09-17T07:00:54.658Z,98849.66
2022-09-17T07:03:29.353Z,98850.66
2022-09-17T07:05:57.039Z,98851.28
2022-09-17T07:08:35.727Z,98851.28
2022-09-17T07:11:08.097Z,98844.19
2022-09-17T07:13:45.775Z,98841.72
2022-09-17T07:16:13.247Z,98838.06
2022-09-17T07:18:50.872Z,98831.03
2022-09-17T07:21:24.481Z,98840.47
2022-09-17T07:24:00.899Z,98848.94
2022-09-17T07:26:36.904Z,98842.22
2022-09-17T07:29:09.433Z,98833.19
2022-09-17T07:31:37.232Z,98829.13
2022-09-17T07:34:08.866Z,98830.91
2022-09-17T07:36:39.250Z,98831.56
2022-09-17T07:39:08.621Z,98830.22
2022-09-17T07:41:35.736Z,98838.91
2022-09-17T07:44:09.964Z,98833.03
2022-09-17T07:46:40.142Z,98836.06
2022-09-17T07:49:07.181Z,98836.16
2022-09-17T07:51:37.422Z,98838.06
2022-09-17T07:54:07.256Z,98846.75
2022-09-17T07:56:45.274Z,98835.94
2022-09-17T07:59:26.318Z,98845.25
2022-09-17T08:01:53.759Z,98843.41
2022-09-17T08:04:34.064Z,98840.16
2022-09-17T08:07:11.708Z,98838.84
2022-09-17T08:09:50.102Z,98846.69
2022-09-17T08:12:28.250Z,98843.72
2022-09-17T08:14:59.153Z,98850.19
2022-09-17T08:17:26.236Z,98850.16
2022-09-17T08:19:56.199Z,98856.16
2022-09-17T08:22:31.805Z,98870.25
2022-09-17T08:25:04.363Z,98868.03
2022-09-17T08:27:50.898Z,98869.06
2022-09-17T08:30:20.668Z,98868.22
2022-09-17T08:32:59.028Z,98870.38
2022-09-17T08:35:29.723Z,98881.53
2022-09-17T08:38:02.426Z,98878.25
2022-09-17T08:40:32.715Z,98882.88
2022-09-17T08:43:08.120Z,98875.78
2022-09-17T08:45:37.993Z,98870.41
2022-09-17T08:48:22.180Z,98860.94
2022-09-17T08:50:55.379Z,98860.97
2022-09-17T08:54:01.971Z,98844.06
2022-09-17T08:56:32.429Z,98846.06
2022-09-17T08:59:41.048Z,98847.38
2022-09-17T09:02:37.817Z,98848.50
2022-09-17T09:05:18.537Z,98838.72
2022-09-17T09:07:54.866Z,98842.53
2022-09-17T09:10:33.766Z,98840.66
2022-09-17T09:13:12.732Z,98844.72
2022-09-17T09:15:48.848Z,98851.72
2022-09-17T09:18:29.543Z,98850.59
2022-09-17T09:21:30.049Z,98856.84
2022-09-17T09:24:03.528Z,98872.88
2022-09-17T09:27:09.242Z,98871.00
2022-09-17T09:30:03.871Z,98870.41
2022-09-17T09:33:07.973Z,98871.16
2022-09-17T09:35:45.277Z,98869.81
2022-09-17T09:38:51.934Z,98864.09
2022-09-17T09:41:55.495Z,98863.41
2022-09-17T09:44:27.666Z,98860.19
2022-09-17T09:47:21.056Z,98862.44
2022-09-17T09:50:02.373Z,98866.22
2022-09-17T09:53:06.366Z,98860.03
2022-09-17T09:56:03.510Z,98859.84
2022-09-17T09:58:41.303Z,98857.63
2022-09-17T10:01:34.427Z,98878.06
2022-09-17T10:04:04.584Z,98874.56
2022-09-17T10:06:41.797Z,98875.94
2022-09-17T10:09:11.554Z,98876.25
2022-09-17T10:11:42.555Z,98873.03
2022-09-17T10:14:24.254Z,98871.94
2022-09-17T10:17:25.636Z,98875.75
2022-09-17T10:20:22.096Z,98873.03
2022-09-17T10:22:53.256Z,98866.00
2022-09-17T10:25:32.490Z,98849.16
2022-09-17T10:28:39.421Z,98837.19
2022-09-17T10:34:05.229Z,98843.53
2022-09-17T10:36:43.920Z,98852.47
2022-09-17T10:39:35.664Z,98840.50
2022-09-17T10:42:15.061Z,98833.94
2022-09-17T10:45:34.664Z,98807.84
2022-09-17T10:48:08.702Z,98794.88
2022-09-17T10:50:39.219Z,98813.03
2022-09-17T10:53:07.537Z,98819.84
2022-09-17T10:55:34.776Z,98826.97
2022-09-17T10:58:07.889Z,98824.19
2022-09-17T11:01:05.793Z,98813.31
2022-09-17T11:03:51.732Z,98797.53
2022-09-17T11:06:57.397Z,98778.50
2022-09-17T11:09:32.559Z,98777.38
2022-09-17T11:12:27.523Z,98767.59
2022-09-17T11:15:20.616Z,98748.00
2022-09-17T11:18:28.586Z,98740.41
2022-09-17T11:21:14.411Z,98754.00
2022-09-17T11:23:47.983Z,98775.75
2022-09-17T11:26:35.765Z,98782.81
2022-09-17T11:29:50.990Z,98772.97
2022-09-17T11:32:34.997Z,98767.56
2022-09-17T11:35:20.277Z,98782.25
2022-09-17T11:38:09.890Z,98787.41
2022-09-17T11:40:45.062Z,98808.91
2022-09-17T11:43:24.596Z,98811.28
2022-09-17T11:46:29.596Z,98791.72
2022-09-17T11:49:18.176Z,98782.22
2022-09-17T11:52:32.323Z,98784.97
2022-09-17T11:55:26.893Z,98792.66
2022-09-17T11:58:03.608Z,98788.28
2022-09-17T12:00:43.189Z,98784.22
2022-09-17T12:03:35.662Z,98771.97
2022-09-17T12:06:26.091Z,98756.47
2022-09-17T12:09:02.107Z,98741.00
2022-09-17T12:11:42.634Z,98739.09
2022-09-17T12:14:31.595Z,98730.63
2022-09-17T12:17:03.891Z,98724.38
2022-09-17T12:19:37.703Z,98717.34
2022-09-17T12:22:21.382Z,98700.25
2022-09-17T12:24:57.990Z,98691.25
2022-09-17T12:27:30.962Z,98689.03
2022-09-17T12:30:26.635Z,98706.19
2022-09-17T12:33:12.568Z,98694.78
2022-09-17T12:36:04.005Z,98683.91
2022-09-17T12:39:02.903Z,98667.06
2022-09-17T12:41:36.861Z,98659.94
2022-09-17T12:44:40.681Z,98658.06
2022-09-17T12:47:33.103Z,98657.22
2022-09-17T12:50:18.590Z,98655.88
2022-09-17T12:53:02.644Z,98650.72
2022-09-17T12:55:56.671Z,98643.63
2022-09-17T12:58:32.242Z,98636.03
2022-09-17T13:01:11.315Z,98625.69
2022-09-17T13:04:00.794Z,98627.06
2022-09-17T13:07:08.637Z,98650.13
2022-09-17T13:10:22.005Z,98656.94
2022-09-17T13:13:05.672Z,98665.63
2022-09-17T13:16:00.632Z,98669.16
2022-09-17T13:18:59.397Z,98665.06
2022-09-17T13:22:00.506Z,98674.56
2022-09-17T13:24:37.634Z,98672.66
2022-09-17T13:27:27.046Z,98662.59
2022-09-17T13:29:59.508Z,98654.75
2022-09-17T13:32:33.594Z,98651.75
2022-09-17T13:35:15.390Z,98643.59
2022-09-17T13:37:59.211Z,98644.41
2022-09-17T13:40:36.151Z,98660.19
2022-09-17T13:43:12.299Z,98661.53
2022-09-17T13:46:29.555Z,98657.16
2022-09-17T13:49:19.684Z,98643.56
2022-09-17T13:51:50.065Z,98643.00
2022-09-17T13:54:32.979Z,98625.59
2022-09-17T13:57:14.609Z,98632.69
2022-09-17T14:00:01.303Z,98635.16
2022-09-17T14:02:49.888Z,98645.72
2022-09-17T14:05:54.469Z,98641.63
2022-09-17T14:08:52.042Z,98624.53
2022-09-17T14:11:28.659Z,98626.97
2022-09-17T14:14:13.703Z,98640.00
2022-09-17T14:16:53.530Z,98659.22
2022-09-17T14:20:02.693Z,98664.63
2022-09-17T14:22:35.439Z,98664.13
2022-09-17T14:25:25.455Z,98673.34
2022-09-17T14:28:06.250Z,98671.50
2022-09-17T14:30:38.104Z,98672.28
2022-09-17T14:33:18.828Z,98672.00
2022-09-17T14:36:27.153Z,98669.47
2022-09-17T14:38:57.697Z,98676.75
2022-09-17T14:41:36.630Z,98683.06
2022-09-17T14:44:28.074Z,98694.16
2022-09-17T14:47:12.055Z,98697.75
2022-09-17T14:49:58.522Z,98707.72
2022-09-17T14:52:35.426Z,98707.44
2022-09-17T14:55:25.131Z,98702.84
2022-09-17T14:58:01.412Z,98703.28
2022-09-17T15:00:54.584Z,98706.31
2022-09-17T15:03:29.876Z,98695.94
2022-09-17T15:06:02.422Z,98675.03
2022-09-17T15:08:30.368Z,98670.94
2022-09-17T15:11:12.062Z,98666.91
2022-09-17T15:13:56.912Z,98666.59
2022-09-17T15:16:34.834Z,98682.63
2022-09-17T15:19:14.697Z,98684.47
2022-09-17T15:21:53.161Z,98685.75
2022-09-17T15:24:34.889Z,98683.06
2022-09-17T15:27:18.664Z,98684.94
2022-09-17T15:29:56.519Z,98684.63
2022-09-17T15:32:30.135Z,98679.53
2022-09-17T15:35:17.072Z,98673.81
2022-09-17T15:44:28.630Z,98653.41
2022-09-17T15:47:39.556Z,98649.63
2022-09-17T15:50:21.883Z,98662.28
2022-09-17T15:53:01.958Z,98650.06
2022-09-17T15:55:46.797Z,98654.88
2022-09-17T15:58:35.500Z,98659.81
2022-09-17T16:01:17.699Z,98644.84
2022-09-17T16:03:44.678Z,98627.44
2022-09-17T16:06:23.308Z,98630.88
2022-09-17T16:08:52.716Z,98621.88
2022-09-17T16:11:44.433Z,98617.72
2022-09-17T16:14:17.272Z,98622.09
2022-09-17T16:16:58.054Z,98632.34
2022-09-17T16:19:33.130Z,98632.13
2022-09-17T16:22:02.172Z,98634.44
2022-09-17T16:24:43.324Z,98624.47
2022-09-17T16:27:32.348Z,98619.78
2022-09-17T16:30:09.568Z,98619.78
2022-09-17T16:32:52.955Z,98609.56
2022-09-17T16:35:31.111Z,98605.19
2022-09-17T16:38:06.629Z,98593.09
2022-09-17T16:40:46.808Z,98594.84
2022-09-17T16:43:17.555Z,98600.78
2022-09-17T16:46:00.676Z,98593.09
2022-09-17T16:48:42.346Z,98595.38
2022-09-17T16:51:17.054Z,98587.50
2022-09-17T16:53:52.661Z,98589.31
2022-09-17T16:56:29.491Z,98586.03
2022-09-17T16:59:03.690Z,98596.69
2022-09-17T17:01:36.101Z,98604.50
2022-09-17T17:04:08.550Z,98611.00
2022-09-17T17:06:57.116Z,98614.97
2022-09-17T17:09:45.916Z,98602.78
2022-09-17T17:12:24.839Z,98607.59
2022-09-17T17:15:03.183Z,98608.38
2022-09-17T17:17:39.315Z,98615.91
2022-09-17T17:20:24.304Z,98631.34
2022-09-17T17:23:01.355Z,98647.81
2022-09-17T17:25:36.995Z,98631.56
2022-09-17T17:28:09.640Z,98620.63
2022-09-17T17:30:51.472Z,98627.00
2022-09-17T17:33:27.010Z,98616.69
2022-09-17T17:36:08.947Z,98605.19
2022-09-17T17:38:49.583Z,98608.47
2022-09-17T17:41:18.236Z,98623.53
2022-09-17T17:44:02.922Z,98617.63
2022-09-17T17:46:39.014Z,98618.75
2022-09-17T17:49:23.562Z,98620.91
2022-09-17T17:52:03.790Z,98623.41
2022-09-17T17:57:36.351Z,98611.84
2022-09-17T18:00:10.446Z,98611.53
2022-09-17T18:02:53.062Z,98607.84
2022-09-17T18:05:25.814Z,98620.13
2022-09-17T18:08:06.001Z,98635.88
2022-09-17T18:10:39.666Z,98640.13
2022-09-17T18:13:21.841Z,98650.13
2022-09-17T18:16:01.289Z,98658.63
2022-09-17T18:18:44.820Z,98649.78
2022-09-17T18:21:21.849Z,98664.22
2022-09-17T18:24:01.894Z,98661.25
2022-09-17T18:26:41.716Z,98664.84
2022-09-17T18:29:14.447Z,98671.69
2022-09-17T18:31:49.748Z,98683.34
2022-09-17T18:34:33.722Z,98671.25
2022-09-17T18:37:10.243Z,98675.50
2022-09-17T18:40:04.396Z,98678.63
2022-09-17T18:42:37.462Z,98675.47
2022-09-17T18:45:10.174Z,98684.59
2022-09-17T18:47:47.545Z,98671.91
2022-09-17T18:50:34.678Z,98681.75
2022-09-17T18:53:07.222Z,98685.34
2022-09-17T18:55:39.705Z,98686.94
2022-09-17T18:58:20.963Z,98687.09
2022-09-17T19:04:02.591Z,98677.97
2022-09-17T19:06:42.562Z,98677.44
2022-09-17T19:09:30.693Z,98680.28
2022-09-17T19:12:09.821Z,98676.19
2022-09-17T19:14:38.723Z,98673.50
2022-09-17T19:17:14.169Z,98670.47
2022-09-17T19:19:49.619Z,98665.53
2022-09-17T19:22:21.133Z,98659.41
2022-09-17T19:25:03.238Z,98658.59
2022-09-17T19:27:43.520Z,98661.38
2022-09-17T19:30:15.828Z,98656.72
2022-09-17T19:32:48.187Z,98676.03
2022-09-17T19:35:23.426Z,98680.38
2022-09-17T19:38:13.100Z,98688.31
2022-09-17T19:40:58.411Z,98685.47
2022-09-17T19:43:34.283Z,98690.38
2022-09-17T19:46:21.372Z,98696.81
2022-09-17T19:49:11.227Z,98693.38
2022-09-17T19:51:46.852Z,98685.53
2022-09-17T19:54:28.355Z,98696.66
2022-09-17T19:57:03.657Z,98706.81
2022-09-17T19:59:41.288Z,98704.53
2022-09-17T20:02:26.376Z,98710.59
2022-09-17T20:04:58.786Z,98717.47
2022-09-17T20:07:38.584Z,98712.72
2022-09-17T20:10:22.832Z,98708.94
2022-09-17T20:13:04.577Z,98708.47
2022-09-17T20:15:42.361Z,98696.81
2022-09-17T20:18:23.455Z,98707.31
2022-09-17T20:21:10.630Z,98709.13
2022-09-17T20:23:46.059Z,98698.63
2022-09-17T20:26:25.126Z,98706.31
2022-09-17T20:29:06.257Z,98709.13
2022-09-17T20:31:51.229Z,98705.41
2022-09-17T20:34:32.459Z,98706.66
2022-09-17T20:37:14.046Z,98716.41
2022-09-17T20:39:52.221Z,98721.91
2022-09-17T20:42:32.722Z,98714.09
2022-09-17T20:45:05.709Z,98732.53
2022-09-17T20:47:44.177Z,98726.00
2022-09-17T20:50:22.710Z,98723.53
2022-09-17T20:52:57.079Z,98718.28
2022-09-17T20:55:35.122Z,98724.97
2022-09-17T20:58:22.474Z,98728.31
2022-09-17T21:01:17.834Z,98721.25
2022-09-17T21:03:56.668Z,98727.94
2022-09-17T21:06:42.399Z,98725.31
2022-09-17T21:09:23.011Z,98722.19
2022-09-17T21:12:07.232Z,98727.22
2022-09-17T21:14:42.675Z,98738.03
2022-09-17T21:17:18.523Z,98736.94
2022-09-17T21:19:59.720Z,98736.94
2022-09-17T21:22:32.325Z,98736.38
2022-09-17T21:25:18.762Z,98740.28
2022-09-17T21:27:51.468Z,98740.00
2022-09-17T21:30:29.857Z,98738.22
2022-09-17T21:33:07.695Z,98743.72
2022-09-17T21:35:42.136Z,98743.66
2022-09-17T21:38:24.485Z,98754.44
2022-09-17T21:41:07.955Z,98747.59
2022-09-17T21:43:44.067Z,98754.03
2022-09-17T21:46:17.947Z,98747.16
2022-09-17T21:49:08.524Z,98753.63
2022-09-17T21:51:42.555Z,98757.00
2022-09-17T21:54:17.199Z,98751.28
2022-09-17T21:56:54.537Z,98748.69
2022-09-17T21:59:30.160Z,98741.84
2022-09-17T22:02:05.845Z,98750.03
2022-09-17T22:04:39.603Z,98744.88
2022-09-17T22:07:09.542Z,98745.38
2022-09-17T22:09:40.395Z,98745.38
2022-09-17T22:12:15.737Z,98746.47
2022-09-17T22:14:57.711Z,98746.34
2022-09-17T22:17:36.743Z,98742.81
2022-09-17T22:20:12.582Z,98740.81
2022-09-17T22:22:53.647Z,98744.09
2022-09-17T22:25:32.181Z,98756.56
2022-09-17T22:28:21.057Z,98753.00
2022-09-17T22:31:09.919Z,98747.88
2022-09-17T22:33:50.554Z,98745.75
2022-09-17T22:36:25.861Z,98759.53
2022-09-17T22:39:04.758Z,98755.03
2022-09-17T22:41:45.919Z,98750.94
2022-09-17T22:44:24.633Z,98750.28
2022-09-17T22:47:01.744Z,98756.84
2022-09-17T22:49:39.730Z,98761.72
2022-09-17T22:52:17.820Z,98763.50
2022-09-17T22:54:53.252Z,98764.66
2022-09-17T22:57:28.540Z,98766.66
2022-09-17T23:00:10.673Z,98761.56
2022-09-17T23:02:51.683Z,98758.97
2022-09-17T23:05:33.529Z,98765.44
2022-09-17T23:08:12.144Z,98771.16
2022-09-17T23:10:58.834Z,98776.81
2022-09-17T23:13:32.688Z,98777.16
2022-09-17T23:16:11.529Z,98778.63
2022-09-17T23:18:49.701Z,98775.00
2022-09-17T23:21:27.591Z,98774.16
2022-09-17T23:24:08.734Z,98771.81
2022-09-17T23:26:44.305Z,98774.63
2022-09-17T23:29:28.733Z,98775.91
2022-09-17T23:32:09.385Z,98780.72
2022-09-17T23:34:50.666Z,98786.59
2022-09-17T23:37:40.338Z,98779.66
2022-09-17T23:40:10.730Z,98779.19
2022-09-17T23:42:55.068Z,98790.22
2022-09-17T23:45:31.789Z,98795.88
2022-09-17T23:48:11.199Z,98793.88
2022-09-17T23:50:46.463Z,98786.25
2022-09-17T23:53:23.541Z,98790.34
2022-09-17T23:56:00.506Z,98792.44
2022-09-17T23:58:34.131Z,98788.50
